Meteo Giornale » Osservazioni meteo Italia » Verona-Villafranca

ore: 03:20 - Osservazioni Meteo Verona-Villafranca
Lat. 45° 23' N Lon. 10° 52' E Alt. 67 metri s.l.m.

sereno Europe/Rome

22 °C

Sereno

Temp. 24 Ore

20 °C

34 °C

Nord

3.7 Km/h

Dew point 17 °C

Umidità 73 %

Visibilità  10 Km

Il sole sorge alle ore 06:19

Il sole tramonta alle ore 20:21

Data e Ora Cielo e Fenomeni T °C DP °C Um. % Pres. hPa Vis. km Vento km/h
Oggi h: 03:20 sereno Sereno 22 17 73 1018 10 N 3.7
Oggi h: 02:50 sereno Sereno 22 17 73 1018 10 N 3.7
Oggi h: 02:20 sereno Sereno 22 17 73 1018 10 SO 7.4
Oggi h: 01:50 sereno Sereno 23 17 68 1018 10 N 5.5
Oggi h: 01:20 sereno Sereno 22 16 68 1018 10 N 7.4
Oggi h: 00:50 sereno Sereno 22 17 73 1018 10 N 3.7
Oggi h: 00:20 sereno Sereno 22 17 73 1018 10 N 1.8
Ieri h: 23:50 sereno Sereno 23 17 68 1018 10 N 1.8
Ieri h: 23:20 sereno Sereno 24 17 64 1018 10 N 1.8
Ieri h: 22:50 sereno Sereno 25 17 61 1018 10 N 3.7
Ieri h: 22:20 sereno Sereno 25 16 57 1018 10 N 1.8
Ieri h: 21:50 sereno Sereno 26 17 57 1017 10 E 7.4
Ieri h: 21:20 sereno Sereno 26 17 57 1017 10 E 9.3
Ieri h: 20:50 sereno Sereno 27 17 54 1017 10 N 5.5
Ieri h: 20:20 sereno Sereno 28 17 51 1017 10 N 5.5
Ieri h: 19:50 sereno Sereno 29 17 48 1016 10 E 7.4
Ieri h: 19:20 sereno Sereno 30 16 42 1016 10 E 7.4
Ieri h: 18:20 poco_nuvoloso Poco Nuvoloso 32 15 35 1016 10 N/NO 9.3
Ieri h: 17:50 poco_nuvoloso Poco Nuvoloso 33 14 31 1016 10 SO 9.3
Ieri h: 17:20 poco_nuvoloso Poco Nuvoloso 34 15 32 1016 10 N 3.7
Ieri h: 16:50 poco_nuvoloso Poco Nuvoloso 33 14 31 1016 10 N 3.7
Ieri h: 16:20 poco_nuvoloso Poco Nuvoloso 33 15 33 1017 10 N 7.4
Ieri h: 15:50 poco_nuvoloso Poco Nuvoloso 33 15 33 1017 10 N 3.7
Ieri h: 15:20 poco_nuvoloso Poco Nuvoloso 33 15 33 1017 10 N 5.5
Ieri h: 14:50 poco_nuvoloso Poco Nuvoloso 32 15 35 1017 10 N 5.5
Ieri h: 14:20 poco_nuvoloso Poco Nuvoloso 32 14 33 1017 10 N 7.4
Ieri h: 13:50 poco_nuvoloso Poco Nuvoloso 31 14 35 1017 10 N 7.4
Ieri h: 13:20 poco_nuvoloso Poco Nuvoloso 31 15 37 1018 10 S/SE 9.3
Ieri h: 12:50 poco_nuvoloso Poco Nuvoloso 30 15 40 1018 10 N 5.5
Ieri h: 12:20 poco_nuvoloso Poco Nuvoloso 29 14 39 1018 10 N 5.5
Ieri h: 11:50 poco_nuvoloso Poco Nuvoloso 29 16 45 1018 10 N 3.7
Ieri h: 11:20 poco_nuvoloso Poco Nuvoloso 28 15 45 1019 10 N 3.7
Ieri h: 10:50 nuvoloso Nuvoloso 27 15 47 1019 10 N 3.7
Ieri h: 10:20 poco_nuvoloso Poco Nuvoloso 28 16 48 1019 10 N 3.7
Ieri h: 09:50 nuvoloso Nuvoloso 29 15 42 1018 10 N 1.8
Ieri h: 09:20 nuvoloso Nuvoloso 27 14 44 1018 10 N 5.5
Ieri h: 08:50 nuvoloso Nuvoloso 26 15 50 1018 10 N 3.7
Ieri h: 08:20 nuvoloso Nuvoloso 24 15 57 1018 10 N 5.5
Ieri h: 07:50 nuvoloso Nuvoloso 23 15 60 1018 10 N/NO 7.4
Ieri h: 07:20 nuvoloso Nuvoloso 23 15 60 1018 10 N/NO 7.4
Ieri h: 06:50 nuvoloso Nuvoloso 20 15 72 1018 10 N 5.5
Ieri h: 06:20 poco_nuvoloso Poco Nuvoloso 21 14 64 1018 10 N 5.5
Ieri h: 05:50 sereno Sereno 20 14 68 1018 10 N 5.5
Ieri h: 05:20 sereno Sereno 21 14 64 1018 10 N 5.5
Ieri h: 04:50 sereno Sereno 21 14 64 1018 10 NO 9.3
Ieri h: 04:20 sereno Sereno 21 14 64 1018 10 N 5.5
Ieri h: 03:50 sereno Sereno 20 14 68 1018 10 N/NO 7.4